createdAt,value
2017-08-11T00:02:26.712Z,21.72
2017-08-11T00:04:55.060Z,21.64
2017-08-11T00:07:24.194Z,21.73
2017-08-11T00:09:52.830Z,21.75
2017-08-11T00:12:21.192Z,21.70
2017-08-11T00:14:49.558Z,21.78
2017-08-11T00:17:18.644Z,21.85
2017-08-11T00:19:47.000Z,21.86
2017-08-11T00:22:15.359Z,21.82
2017-08-11T00:24:44.008Z,21.85
2017-08-11T00:27:12.361Z,21.80
2017-08-11T00:29:40.721Z,21.66
2017-08-11T00:32:09.385Z,21.56
2017-08-11T00:34:37.737Z,21.62
2017-08-11T00:37:06.111Z,21.58
2017-08-11T00:39:35.176Z,21.46
2017-08-11T00:42:03.570Z,21.47
2017-08-11T00:44:31.925Z,21.61
2017-08-11T00:47:00.570Z,21.75
2017-08-11T00:49:28.928Z,21.66
2017-08-11T00:51:57.270Z,21.64
2017-08-11T00:54:25.961Z,21.62
2017-08-11T00:56:54.325Z,21.58
2017-08-11T00:59:22.662Z,21.58
2017-08-11T01:01:51.503Z,21.49
2017-08-11T01:04:19.864Z,21.56
2017-08-11T01:06:48.981Z,21.57
2017-08-11T01:09:17.766Z,21.54
2017-08-11T01:11:46.125Z,21.55
2017-08-11T01:14:15.249Z,21.41
2017-08-11T01:16:44.009Z,21.37
2017-08-11T01:19:12.357Z,21.52
2017-08-11T01:21:40.714Z,21.56
2017-08-11T01:24:09.883Z,21.65
2017-08-11T01:26:38.238Z,21.60
2017-08-11T01:29:07.385Z,21.68
2017-08-11T01:31:36.048Z,21.57
2017-08-11T01:34:05.172Z,21.47
2017-08-11T01:36:33.518Z,21.32
2017-08-11T01:39:02.195Z,21.26
2017-08-11T01:41:30.574Z,21.34
2017-08-11T01:43:59.710Z,21.39
2017-08-11T01:46:28.665Z,21.34
2017-08-11T01:48:57.091Z,21.31
2017-08-11T01:51:25.465Z,21.32
2017-08-11T01:53:54.327Z,21.20
2017-08-11T01:56:22.676Z,21.13
2017-08-11T01:58:51.034Z,21.02
2017-08-11T02:01:19.646Z,20.96
2017-08-11T02:03:48.789Z,20.87
2017-08-11T02:06:17.150Z,20.84
2017-08-11T02:08:45.903Z,20.84
2017-08-11T02:11:15.028Z,20.72
2017-08-11T02:13:43.404Z,20.50
2017-08-11T02:16:12.326Z,20.43
2017-08-11T02:18:40.700Z,20.40
2017-08-11T02:21:09.042Z,20.41
2017-08-11T02:23:37.756Z,20.31
2017-08-11T02:26:06.088Z,20.58
2017-08-11T02:28:34.449Z,20.67
2017-08-11T02:31:03.604Z,20.67
2017-08-11T02:33:31.972Z,20.55
2017-08-11T02:36:00.379Z,20.61
2017-08-11T02:38:29.007Z,20.45
2017-08-11T02:40:57.386Z,20.65
2017-08-11T02:43:25.822Z,20.56
2017-08-11T02:45:54.524Z,20.50
2017-08-11T02:48:22.903Z,20.61
2017-08-11T02:50:51.253Z,20.70
2017-08-11T02:53:20.585Z,20.66
2017-08-11T02:55:48.928Z,20.32
2017-08-11T02:58:17.274Z,20.51
2017-08-11T03:00:45.959Z,20.61
2017-08-11T03:03:14.330Z,20.72
2017-08-11T03:05:42.711Z,20.69
2017-08-11T03:08:11.341Z,20.79
2017-08-11T03:10:39.691Z,20.90
2017-08-11T03:13:08.051Z,20.88
2017-08-11T03:15:37.102Z,20.91
2017-08-11T03:18:05.481Z,20.83
2017-08-11T03:20:33.846Z,20.90
2017-08-11T03:23:02.509Z,20.93
2017-08-11T03:25:30.888Z,20.94
2017-08-11T03:28:00.026Z,20.90
2017-08-11T03:30:28.689Z,20.89
2017-08-11T03:32:57.030Z,20.95
2017-08-11T03:35:25.402Z,21.00
2017-08-11T03:37:54.170Z,20.99
2017-08-11T03:40:22.522Z,20.98
2017-08-11T03:42:50.884Z,20.85
2017-08-11T03:45:20.330Z,20.90
2017-08-11T03:47:48.694Z,20.93
2017-08-11T03:50:17.043Z,20.94
2017-08-11T03:52:45.813Z,20.94
2017-08-11T03:55:14.177Z,20.89
2017-08-11T03:57:42.518Z,20.84
2017-08-11T04:00:11.431Z,20.97
2017-08-11T04:02:39.772Z,20.99
2017-08-11T04:05:08.900Z,20.88
2017-08-11T04:07:37.887Z,20.74
2017-08-11T04:10:06.227Z,20.90
2017-08-11T04:12:35.321Z,20.85
2017-08-11T04:15:03.944Z,20.80
2017-08-11T04:17:32.301Z,20.71
2017-08-11T04:20:00.630Z,20.79
2017-08-11T04:22:29.587Z,20.75
2017-08-11T04:24:57.934Z,20.60
2017-08-11T04:27:27.056Z,20.59
2017-08-11T04:29:55.870Z,20.72
2017-08-11T04:32:24.253Z,20.70
2017-08-11T04:34:52.606Z,20.55
2017-08-11T04:37:21.331Z,20.52
2017-08-11T04:39:49.797Z,20.39
2017-08-11T04:42:18.148Z,20.51
2017-08-11T04:44:46.852Z,20.53
2017-08-11T04:47:15.186Z,20.43
2017-08-11T04:49:43.534Z,20.45
2017-08-11T04:52:12.214Z,20.51
2017-08-11T04:54:40.577Z,20.50
2017-08-11T04:57:08.936Z,20.54
2017-08-11T04:59:37.843Z,20.48
2017-08-11T05:02:06.188Z,20.62
2017-08-11T05:04:35.302Z,20.52
2017-08-11T05:07:04.957Z,20.29
2017-08-11T05:09:33.319Z,20.26
2017-08-11T05:12:01.686Z,20.29
2017-08-11T05:14:30.336Z,20.26
2017-08-11T05:16:58.674Z,20.41
2017-08-11T05:19:27.013Z,20.45
2017-08-11T05:21:55.688Z,20.50
2017-08-11T05:24:24.832Z,20.52
2017-08-11T05:26:53.222Z,20.41
2017-08-11T05:29:22.077Z,20.35
2017-08-11T05:31:50.435Z,20.21
2017-08-11T05:34:19.550Z,20.19
2017-08-11T05:36:48.343Z,20.25
2017-08-11T05:39:16.698Z,20.34
2017-08-11T05:41:45.054Z,20.27
2017-08-11T05:44:14.006Z,20.34
2017-08-11T05:46:42.369Z,20.34
2017-08-11T05:49:10.725Z,20.32
2017-08-11T05:51:39.640Z,20.06
2017-08-11T05:54:08.009Z,20.01
2017-08-11T05:56:36.369Z,20.02
2017-08-11T05:59:05.094Z,20.28
2017-08-11T06:01:33.457Z,20.46
2017-08-11T06:04:01.808Z,20.46
2017-08-11T06:06:30.530Z,20.45
2017-08-11T06:08:58.945Z,20.61
2017-08-11T06:11:27.308Z,20.64
2017-08-11T06:13:56.098Z,20.67
2017-08-11T06:16:24.451Z,20.61
2017-08-11T06:18:52.800Z,20.72
2017-08-11T06:21:21.637Z,20.79
2017-08-11T06:23:49.984Z,20.86
2017-08-11T06:26:18.331Z,20.80
2017-08-11T06:28:47.073Z,20.71
2017-08-11T06:31:15.439Z,20.73
2017-08-11T06:33:43.783Z,20.68
2017-08-11T06:36:12.556Z,20.60
2017-08-11T06:38:40.913Z,20.78
2017-08-11T06:41:09.267Z,20.74
2017-08-11T06:43:37.900Z,20.71
2017-08-11T06:46:06.256Z,20.48
2017-08-11T06:48:34.611Z,20.45
2017-08-11T06:51:03.405Z,20.59
2017-08-11T06:53:31.792Z,20.73
2017-08-11T06:56:00.173Z,20.75
2017-08-11T06:58:29.101Z,20.71
2017-08-11T07:00:57.478Z,20.75
2017-08-11T07:03:25.838Z,20.68
2017-08-11T07:05:54.504Z,20.81
2017-08-11T07:08:22.871Z,20.88
2017-08-11T07:10:51.207Z,21.06
2017-08-11T07:13:19.846Z,21.08
2017-08-11T07:15:48.259Z,21.03
2017-08-11T07:18:16.621Z,21.00
2017-08-11T07:20:45.431Z,21.13
2017-08-11T07:23:13.779Z,21.07
2017-08-11T07:25:42.135Z,21.20
2017-08-11T07:28:11.048Z,21.23
2017-08-11T07:30:39.408Z,21.15
2017-08-11T07:33:08.531Z,21.27
2017-08-11T07:35:37.134Z,21.38
2017-08-11T07:38:05.509Z,21.39
2017-08-11T07:40:33.849Z,21.41
2017-08-11T07:43:02.729Z,21.35
2017-08-11T07:45:31.107Z,21.45
2017-08-11T07:48:00.207Z,21.52
2017-08-11T07:50:29.832Z,21.52
2017-08-11T07:52:58.227Z,21.59
2017-08-11T07:55:26.622Z,21.50
2017-08-11T07:57:55.527Z,21.49
2017-08-11T08:00:23.908Z,21.63
2017-08-11T08:02:52.257Z,21.50
2017-08-11T08:05:21.076Z,21.48
2017-08-11T08:07:49.428Z,21.40
2017-08-11T08:10:17.847Z,21.33
2017-08-11T08:12:46.612Z,21.41
2017-08-11T08:15:15.034Z,21.31
2017-08-11T08:17:43.414Z,21.22
2017-08-11T08:20:12.294Z,21.33
2017-08-11T08:22:40.666Z,21.25
2017-08-11T08:25:09.017Z,21.35
2017-08-11T08:27:37.931Z,21.49
2017-08-11T08:30:06.312Z,21.67
2017-08-11T08:32:34.671Z,21.84
2017-08-11T08:35:03.532Z,21.89
2017-08-11T08:37:31.898Z,21.91
2017-08-11T08:40:00.259Z,21.92
2017-08-11T08:42:28.923Z,21.96
2017-08-11T08:44:57.265Z,22.04
2017-08-11T08:47:25.618Z,21.98
2017-08-11T08:49:54.277Z,21.93
2017-08-11T08:52:22.623Z,22.08
2017-08-11T08:54:50.959Z,22.08
2017-08-11T08:57:19.850Z,21.80
2017-08-11T08:59:48.201Z,21.86
2017-08-11T09:02:16.551Z,21.67
2017-08-11T09:04:45.236Z,21.35
2017-08-11T09:07:13.583Z,21.35
2017-08-11T09:09:41.952Z,21.48
2017-08-11T09:12:10.791Z,21.31
2017-08-11T09:14:39.131Z,21.42
2017-08-11T09:17:07.488Z,21.55
2017-08-11T09:19:36.209Z,21.35
2017-08-11T09:22:04.556Z,21.16
2017-08-11T09:24:51.590Z,21.16
2017-08-11T09:27:37.629Z,21.18
2017-08-11T09:30:23.983Z,21.01
2017-08-11T09:33:10.020Z,20.88
2017-08-11T09:35:56.185Z,20.99
2017-08-11T09:38:24.538Z,21.10
2017-08-11T09:40:53.660Z,21.00
2017-08-11T09:43:22.443Z,21.14
2017-08-11T09:45:50.816Z,21.36
2017-08-11T09:48:19.165Z,21.52
2017-08-11T09:50:48.092Z,21.58
2017-08-11T09:53:16.447Z,21.54
2017-08-11T09:55:45.570Z,21.47
2017-08-11T09:58:14.224Z,21.65
2017-08-11T10:00:43.356Z,21.67
2017-08-11T10:03:11.797Z,21.60
2017-08-11T10:05:41.287Z,21.41
2017-08-11T10:08:09.739Z,21.42
2017-08-11T10:10:38.116Z,21.11
2017-08-11T10:13:07.031Z,21.09
2017-08-11T10:15:35.438Z,21.17
2017-08-11T10:18:03.791Z,21.05
2017-08-11T10:20:32.490Z,21.16
2017-08-11T10:23:00.870Z,21.07
2017-08-11T10:25:29.212Z,20.99
2017-08-11T10:27:57.862Z,20.99
2017-08-11T10:30:26.224Z,21.15
2017-08-11T10:32:54.558Z,21.13
2017-08-11T10:35:23.510Z,21.00
2017-08-11T10:37:52.613Z,20.92
2017-08-11T10:40:20.973Z,21.07
2017-08-11T10:42:49.827Z,20.93
2017-08-11T10:45:18.166Z,20.94
2017-08-11T10:47:46.519Z,20.86
2017-08-11T10:50:15.223Z,20.96
2017-08-11T10:52:43.793Z,21.17
2017-08-11T10:55:12.183Z,21.19
2017-08-11T10:57:41.478Z,21.18
2017-08-11T11:00:10.586Z,21.16
2017-08-11T11:02:38.953Z,20.95
2017-08-11T11:05:07.712Z,20.92
2017-08-11T11:07:36.073Z,21.03
2017-08-11T11:10:04.667Z,21.27
2017-08-11T11:12:33.536Z,21.01
2017-08-11T11:15:01.914Z,20.92
2017-08-11T11:17:30.279Z,20.67
2017-08-11T11:19:58.970Z,20.76
2017-08-11T11:22:27.323Z,20.52
2017-08-11T11:24:56.438Z,20.75
2017-08-11T11:27:25.226Z,20.76
2017-08-11T11:29:53.599Z,20.71
2017-08-11T11:32:21.946Z,20.40
2017-08-11T11:34:50.721Z,20.17
2017-08-11T11:37:19.085Z,20.44
2017-08-11T11:39:47.423Z,20.65
2017-08-11T11:42:16.127Z,20.72
2017-08-11T11:44:44.492Z,20.84
2017-08-11T11:47:12.835Z,21.01
2017-08-11T11:49:41.538Z,21.10
2017-08-11T11:52:09.899Z,21.20
2017-08-11T11:54:38.273Z,20.97
2017-08-11T11:57:06.927Z,21.01
2017-08-11T11:59:35.297Z,20.90
2017-08-11T12:02:03.668Z,21.04
2017-08-11T12:04:32.616Z,20.95
2017-08-11T12:07:01.018Z,20.92
2017-08-11T12:09:29.420Z,20.74
2017-08-11T12:11:58.062Z,20.80
2017-08-11T12:14:26.474Z,20.88
2017-08-11T12:16:54.835Z,20.80
2017-08-11T12:19:23.476Z,20.90
2017-08-11T12:21:51.825Z,21.03
2017-08-11T12:24:20.176Z,20.77
2017-08-11T12:26:49.648Z,20.62
2017-08-11T12:29:18.095Z,20.35
2017-08-11T12:31:46.588Z,20.48
2017-08-11T12:34:15.454Z,20.40
2017-08-11T12:36:43.790Z,20.20
2017-08-11T12:41:47.277Z,20.51
2017-08-11T12:44:15.627Z,20.48
2017-08-11T12:46:43.973Z,20.66
2017-08-11T12:49:12.907Z,20.77
2017-08-11T12:51:41.248Z,20.77
2017-08-11T12:54:09.627Z,20.77
2017-08-11T12:56:38.244Z,20.72
2017-08-11T12:59:06.594Z,21.00
2017-08-11T13:01:34.943Z,20.92
2017-08-11T13:04:03.603Z,20.87
2017-08-11T13:06:32.013Z,21.00
2017-08-11T13:09:00.372Z,21.06
2017-08-11T13:11:29.220Z,21.21
2017-08-11T13:13:57.562Z,21.21
2017-08-11T13:16:25.899Z,21.05
2017-08-11T13:18:54.695Z,21.21
2017-08-11T13:21:23.039Z,21.42
2017-08-11T13:23:52.152Z,21.48
2017-08-11T13:26:20.784Z,21.32
2017-08-11T13:28:49.115Z,21.31
2017-08-11T13:31:17.520Z,21.21
2017-08-11T13:33:46.592Z,20.85
2017-08-11T13:36:14.973Z,21.00
2017-08-11T13:38:43.351Z,21.08
2017-08-11T13:41:12.273Z,21.11
2017-08-11T13:43:40.618Z,21.15
2017-08-11T13:46:09.019Z,20.95
2017-08-11T13:48:37.645Z,21.01
2017-08-11T13:51:05.989Z,21.03
2017-08-11T13:53:34.475Z,21.02
2017-08-11T13:56:03.789Z,21.25
2017-08-11T13:58:32.118Z,21.16
2017-08-11T14:01:00.462Z,21.21
2017-08-11T14:03:29.260Z,21.19
2017-08-11T14:05:57.634Z,21.05
2017-08-11T14:08:25.988Z,21.15
2017-08-11T14:10:54.878Z,21.06
2017-08-11T14:13:23.234Z,21.19
2017-08-11T14:15:51.588Z,21.05
2017-08-11T14:18:20.633Z,21.11
2017-08-11T14:20:48.976Z,21.22
2017-08-11T14:23:23.054Z,21.14
2017-08-11T14:25:51.412Z,21.23
2017-08-11T14:28:19.767Z,20.95
2017-08-11T14:30:48.622Z,21.07
2017-08-11T14:33:16.969Z,21.03
2017-08-11T14:35:45.315Z,20.86
2017-08-11T14:38:14.313Z,20.98
2017-08-11T14:40:42.713Z,20.88
2017-08-11T14:43:11.067Z,20.71
2017-08-11T14:45:39.864Z,20.81
2017-08-11T14:48:08.222Z,20.83
2017-08-11T14:50:36.582Z,20.93
2017-08-11T14:53:05.600Z,20.75
2017-08-11T14:55:33.941Z,20.96
2017-08-11T14:58:02.286Z,21.03
2017-08-11T15:00:31.099Z,20.87
2017-08-11T15:02:59.443Z,20.94
2017-08-11T15:05:27.807Z,20.79
2017-08-11T15:07:56.512Z,20.66
2017-08-11T15:10:24.865Z,20.60
2017-08-11T15:12:53.218Z,20.59
2017-08-11T15:15:21.948Z,20.47
2017-08-11T15:17:50.312Z,20.25
2017-08-11T15:20:18.652Z,20.28
2017-08-11T15:22:47.925Z,20.44
2017-08-11T15:25:16.300Z,20.30
2017-08-11T15:27:44.676Z,20.17
2017-08-11T15:30:13.323Z,20.01
2017-08-11T15:32:41.676Z,19.91
2017-08-11T15:35:10.052Z,19.93
2017-08-11T15:37:38.693Z,20.10
2017-08-11T15:40:07.071Z,20.16
2017-08-11T15:42:35.445Z,20.22
2017-08-11T15:45:04.294Z,20.07
2017-08-11T15:47:32.651Z,20.07
2017-08-11T15:50:01.032Z,20.08
2017-08-11T15:52:29.980Z,20.05
2017-08-11T15:54:58.339Z,19.98
2017-08-11T15:57:27.488Z,20.14
2017-08-11T15:59:56.128Z,20.19
2017-08-11T16:02:25.267Z,20.18
2017-08-11T16:04:53.671Z,20.15
2017-08-11T16:07:25.816Z,20.27
2017-08-11T16:09:54.192Z,20.30
2017-08-11T16:12:22.534Z,20.39
2017-08-11T16:14:51.321Z,20.37
2017-08-11T16:17:19.671Z,20.29
2017-08-11T16:19:48.020Z,20.36
2017-08-11T16:22:16.665Z,20.36
2017-08-11T16:24:45.038Z,20.04
2017-08-11T16:27:13.379Z,20.03
2017-08-11T16:29:42.131Z,19.76
2017-08-11T16:32:10.486Z,19.65
2017-08-11T16:34:38.885Z,19.55
2017-08-11T16:37:07.761Z,19.55
2017-08-11T16:39:36.187Z,19.67
2017-08-11T16:42:04.535Z,19.65
2017-08-11T16:44:33.138Z,19.74
2017-08-11T16:47:01.467Z,19.85
2017-08-11T16:49:29.815Z,19.69
2017-08-11T16:51:58.504Z,19.70
2017-08-11T16:54:26.882Z,19.85
2017-08-11T16:56:58.367Z,19.89
2017-08-11T16:59:27.051Z,19.78
2017-08-11T17:01:55.431Z,19.90
2017-08-11T17:04:23.806Z,19.64
2017-08-11T17:06:52.467Z,19.64
2017-08-11T17:09:20.827Z,19.57
2017-08-11T17:11:49.169Z,19.25
2017-08-11T17:14:17.865Z,19.26
2017-08-11T17:16:46.209Z,19.29
2017-08-11T17:19:15.336Z,19.13
2017-08-11T17:21:44.305Z,19.09
2017-08-11T17:24:12.641Z,19.02
2017-08-11T17:26:41.034Z,18.89
2017-08-11T17:29:09.759Z,19.04
2017-08-11T17:31:38.130Z,19.01
2017-08-11T17:34:07.257Z,19.20
2017-08-11T17:36:36.025Z,19.22
2017-08-11T17:39:04.391Z,19.20
2017-08-11T17:41:33.498Z,19.24
2017-08-11T17:44:02.287Z,19.32
2017-08-11T17:46:30.658Z,19.34
2017-08-11T17:48:59.015Z,19.44
2017-08-11T17:51:27.694Z,19.46
2017-08-11T17:53:56.071Z,19.51
2017-08-11T17:56:24.431Z,19.35
2017-08-11T17:58:53.265Z,19.39
2017-08-11T18:01:22.462Z,19.44
2017-08-11T18:03:50.828Z,19.41
2017-08-11T18:06:19.490Z,19.38
2017-08-11T18:08:47.865Z,19.35
2017-08-11T18:11:16.269Z,19.35
2017-08-11T18:13:44.966Z,19.14
2017-08-11T18:16:13.311Z,18.86
2017-08-11T18:18:41.666Z,18.83
2017-08-11T18:21:10.433Z,18.91
2017-08-11T18:23:38.793Z,18.83
2017-08-11T18:26:07.158Z,18.82
2017-08-11T18:28:36.198Z,18.86
2017-08-11T18:31:04.571Z,18.83
2017-08-11T18:33:32.948Z,18.77
2017-08-11T18:36:01.628Z,18.57
2017-08-11T18:38:29.994Z,18.56
2017-08-11T18:40:59.116Z,18.62
2017-08-11T18:43:27.842Z,18.77
2017-08-11T18:45:56.204Z,18.74
2017-08-11T18:48:24.590Z,18.72
2017-08-11T18:50:53.340Z,18.75
2017-08-11T18:53:21.702Z,18.84
2017-08-11T18:55:50.840Z,18.83
2017-08-11T18:58:19.607Z,18.81
2017-08-11T19:00:47.955Z,18.73
2017-08-11T19:03:17.121Z,18.75
2017-08-11T19:05:45.864Z,18.87
2017-08-11T19:08:14.218Z,18.92
2017-08-11T19:10:42.577Z,18.96
2017-08-11T19:13:11.204Z,19.05
2017-08-11T19:15:39.573Z,19.01
2017-08-11T19:18:07.944Z,19.01
2017-08-11T19:20:37.595Z,19.10
2017-08-11T19:23:05.972Z,19.16
2017-08-11T19:25:34.321Z,19.28
2017-08-11T19:28:03.103Z,19.12
2017-08-11T19:30:31.498Z,19.11
2017-08-11T19:32:59.853Z,19.04
2017-08-11T19:35:28.681Z,19.18
2017-08-11T19:37:57.039Z,19.34
2017-08-11T19:40:26.175Z,19.29
2017-08-11T19:42:54.898Z,19.28
2017-08-11T19:45:23.250Z,19.37
2017-08-11T19:47:51.641Z,19.13
2017-08-11T19:50:20.612Z,19.16
2017-08-11T19:52:48.980Z,19.29
2017-08-11T19:55:17.359Z,19.37
2017-08-11T19:57:46.210Z,19.47
2017-08-11T20:00:14.596Z,19.34
2017-08-11T20:02:42.973Z,19.45
2017-08-11T20:05:11.649Z,19.59
2017-08-11T20:07:40.002Z,19.64
2017-08-11T20:10:08.376Z,19.60
2017-08-11T20:12:37.479Z,19.58
2017-08-11T20:15:05.857Z,19.46
2017-08-11T20:17:34.227Z,19.53
2017-08-11T20:20:03.127Z,19.55
2017-08-11T20:22:31.498Z,19.64
2017-08-11T20:24:59.872Z,19.66
2017-08-11T20:27:28.661Z,19.63
2017-08-11T20:29:57.026Z,19.57
2017-08-11T20:32:25.421Z,19.79
2017-08-11T20:34:54.269Z,19.72
2017-08-11T20:37:22.630Z,19.75
2017-08-11T20:39:50.996Z,19.65
2017-08-11T20:42:19.609Z,19.60
2017-08-11T20:44:47.999Z,19.59
2017-08-11T20:47:16.356Z,19.56
2017-08-11T20:49:45.787Z,19.59
2017-08-11T20:52:14.163Z,19.55
2017-08-11T20:54:42.544Z,19.44
2017-08-11T20:57:11.549Z,19.52
2017-08-11T20:59:39.891Z,19.49
2017-08-11T21:02:08.241Z,19.57
2017-08-11T21:04:37.091Z,19.62
2017-08-11T21:07:05.497Z,19.54
2017-08-11T21:09:33.850Z,19.33
2017-08-11T21:12:02.510Z,19.43
2017-08-11T21:14:30.919Z,19.45
2017-08-11T21:16:59.279Z,19.44
2017-08-11T21:19:28.226Z,19.50
2017-08-11T21:21:56.587Z,19.48
2017-08-11T21:24:24.936Z,19.59
2017-08-11T21:26:53.652Z,19.61
2017-08-11T21:29:22.011Z,19.58
2017-08-11T21:31:50.370Z,19.53
2017-08-11T21:34:19.093Z,19.53
2017-08-11T21:36:47.442Z,19.47
2017-08-11T21:39:16.553Z,19.60
2017-08-11T21:41:45.276Z,19.61
2017-08-11T21:44:13.646Z,19.69
2017-08-11T21:46:41.994Z,19.77
2017-08-11T21:49:10.623Z,19.66
2017-08-11T21:51:39.003Z,19.61
2017-08-11T21:54:07.376Z,19.72
2017-08-11T21:56:36.190Z,19.62
2017-08-11T21:59:04.557Z,19.49
2017-08-11T22:01:32.940Z,19.62
2017-08-11T22:04:02.093Z,19.48
2017-08-11T22:06:30.512Z,19.54
2017-08-11T22:08:58.881Z,19.64
2017-08-11T22:11:27.506Z,19.71
2017-08-11T22:13:55.868Z,19.68
2017-08-11T22:16:24.217Z,19.63
2017-08-11T22:18:52.867Z,19.51
2017-08-11T22:21:21.941Z,19.45
2017-08-11T22:23:50.314Z,19.34
2017-08-11T22:26:19.097Z,19.24
2017-08-11T22:28:47.457Z,19.09
2017-08-11T22:31:15.826Z,19.18
2017-08-11T22:33:44.487Z,19.22
2017-08-11T22:36:12.860Z,19.10
2017-08-11T22:38:41.224Z,18.97
2017-08-11T22:41:10.144Z,18.99
2017-08-11T22:43:38.487Z,19.02
2017-08-11T22:46:06.943Z,19.03
2017-08-11T22:48:35.795Z,18.94
2017-08-11T22:51:04.137Z,18.96
2017-08-11T22:53:33.340Z,19.02
2017-08-11T22:56:01.996Z,18.89
2017-08-11T22:58:30.364Z,18.82
2017-08-11T23:00:58.751Z,18.94
2017-08-11T23:03:27.535Z,19.01
2017-08-11T23:05:55.914Z,18.88
2017-08-11T23:08:24.317Z,18.84
2017-08-11T23:10:53.151Z,18.76
2017-08-11T23:13:21.516Z,18.77
2017-08-11T23:15:49.879Z,18.59
2017-08-11T23:18:18.535Z,18.49
2017-08-11T23:20:46.933Z,18.58
2017-08-11T23:23:16.088Z,18.79
2017-08-11T23:25:44.819Z,18.71
2017-08-11T23:28:13.251Z,18.80
2017-08-11T23:30:41.703Z,18.69
2017-08-11T23:33:10.414Z,18.53
2017-08-11T23:35:38.749Z,18.59
2017-08-11T23:38:07.131Z,18.40
2017-08-11T23:40:36.562Z,18.42
2017-08-11T23:43:04.910Z,18.48
2017-08-11T23:45:33.319Z,18.24
2017-08-11T23:48:02.238Z,18.30
2017-08-11T23:50:30.586Z,18.35
2017-08-11T23:52:58.960Z,18.24
2017-08-11T23:55:27.685Z,18.33
2017-08-11T23:57:56.051Z,18.35
